Time;durP1;ratioP1;P1;durP2;ratioP2;P2;SDS_P1;SDS_P2;PMS_P1;PMS_P2;Temp;Humidity;BMP_temperature;BMP_pressure;BME280_temperature;BME280_humidity;BME280_pressure;Samples;Min_cycle;Max_cycle;Signal;HPM_P1;HPM_P2
2023/01/04 00:01:16;;;;;;;3.67;3.38;;;10.40;85.90;;;;;;5003152;28;20264;-82
2023/01/04 00:03:43;;;;;;;3.00;2.80;;;10.50;85.70;;;;;;5005398;28;20216;-83
2023/01/04 00:06:11;;;;;;;3.47;3.17;;;10.50;85.90;;;;;;4997301;28;20335;-82
2023/01/04 00:08:37;;;;;;;3.00;2.80;;;10.50;86.10;;;;;;4995719;28;20282;-82
2023/01/04 00:11:05;;;;;;;4.22;2.83;;;10.50;85.90;;;;;;4986316;28;20240;-83
2023/01/04 00:13:31;;;;;;;4.97;3.47;;;10.60;85.80;;;;;;5003640;28;20185;-84
2023/01/04 00:15:57;;;;;;;6.03;3.45;;;10.50;85.80;;;;;;5007087;28;20208;-83
2023/01/04 00:18:23;;;;;;;3.13;2.90;;;10.50;85.80;;;;;;5020219;28;20224;-83
2023/01/04 00:20:49;;;;;;;3.92;3.42;;;10.60;85.50;;;;;;5008253;28;20213;-83
2023/01/04 00:23:14;;;;;;;3.63;3.35;;;10.60;85.40;;;;;;5006870;28;20227;-82
2023/01/04 00:25:40;;;;;;;3.88;3.67;;;10.60;85.30;;;;;;5007586;28;20185;-83
2023/01/04 00:28:06;;;;;;;2.67;2.58;;;10.60;85.10;;;;;;5011156;28;20181;-81
2023/01/04 00:30:31;;;;;;;3.15;2.95;;;10.60;84.80;;;;;;5007512;28;20224;-80
2023/01/04 00:32:57;;;;;;;2.53;2.42;;;10.70;84.80;;;;;;5007180;28;20198;-81
2023/01/04 00:35:23;;;;;;;4.57;3.05;;;10.60;84.70;;;;;;5001320;28;20911;-82
2023/01/04 00:37:49;;;;;;;4.35;3.92;;;10.70;84.50;;;;;;5007179;28;20695;-82
2023/01/04 00:40:15;;;;;;;2.97;2.78;;;10.70;84.60;;;;;;5007995;28;20195;-83
2023/01/04 00:42:40;;;;;;;3.00;2.80;;;10.70;84.40;;;;;;5010604;28;20188;-81
2023/01/04 00:45:07;;;;;;;3.13;2.92;;;10.70;84.30;;;;;;5009505;28;20177;-83
2023/01/04 00:47:32;;;;;;;2.90;2.80;;;10.80;84.00;;;;;;5007551;28;20185;-82
2023/01/04 00:49:58;;;;;;;4.38;3.20;;;10.70;84.10;;;;;;5007026;28;20185;-82
2023/01/04 00:52:25;;;;;;;3.60;3.30;;;10.70;84.10;;;;;;5002846;28;20189;-82
2023/01/04 00:54:51;;;;;;;6.30;4.07;;;10.60;84.50;;;;;;5007279;28;20185;-82
2023/01/04 00:57:16;;;;;;;5.35;4.10;;;10.60;84.60;;;;;;5007250;28;20692;-82
2023/01/04 00:59:42;;;;;;;3.67;3.35;;;10.50;84.60;;;;;;5006162;28;20177;-82
2023/01/04 01:02:08;;;;;;;4.35;3.08;;;10.60;84.50;;;;;;5002482;28;20681;-83
2023/01/04 01:04:34;;;;;;;3.63;3.42;;;10.60;84.30;;;;;;5008795;28;21176;-82
2023/01/04 01:06:59;;;;;;;4.40;3.20;;;10.70;84.20;;;;;;5002151;28;20181;-83
2023/01/04 01:09:25;;;;;;;4.43;3.17;;;10.60;84.20;;;;;;5004860;28;20694;-81
2023/01/04 01:11:52;;;;;;;6.50;3.40;;;10.60;84.30;;;;;;5006454;28;20268;-81
2023/01/04 01:14:23;;;;;;;5.45;3.47;;;10.70;83.90;;;;;;5006084;28;20766;-81
2023/01/04 01:16:49;;;;;;;3.30;2.72;;;10.60;84.00;;;;;;5006253;28;20185;-81
2023/01/04 01:19:14;;;;;;;4.18;3.88;;;10.60;84.00;;;;;;5006461;28;20724;-83
2023/01/04 01:21:40;;;;;;;5.32;3.03;;;10.60;84.00;;;;;;4988479;28;20196;-82
2023/01/04 01:24:08;;;;;;;3.70;3.40;;;10.60;84.00;;;;;;5006791;28;20224;-84
2023/01/04 01:26:33;;;;;;;3.15;2.90;;;10.50;84.10;;;;;;5004223;28;20186;-84
2023/01/04 01:28:59;;;;;;;3.70;3.30;;;10.50;84.00;;;;;;5011051;28;20188;-82
2023/01/04 01:31:27;;;;;;;3.95;3.60;;;10.50;84.30;;;;;;5002278;28;20185;-82
2023/01/04 01:33:54;;;;;;;3.53;3.22;;;10.50;84.00;;;;;;5000760;28;20720;-84
2023/01/04 01:36:22;;;;;;;4.13;3.33;;;10.50;84.10;;;;;;5005874;28;20204;-81
2023/01/04 01:38:48;;;;;;;3.13;2.97;;;10.40;84.30;;;;;;5013308;28;20669;-83
2023/01/04 01:41:22;;;;;;;4.30;3.55;;;10.50;84.00;;;;;;5006552;28;20582;-83
2023/01/04 01:43:52;;;;;;;3.95;3.65;;;10.50;83.60;;;;;;5007190;28;20798;-83
2023/01/04 01:46:38;;;;;;;3.75;3.33;;;10.60;83.90;;;;;;5007094;28;20188;-83
2023/01/04 01:49:08;;;;;;;6.47;3.50;;;10.50;84.20;;;;;;5006102;28;20311;-83
2023/01/04 01:51:34;;;;;;;4.38;3.97;;;10.50;84.30;;;;;;4994597;28;20189;-81
2023/01/04 01:54:09;;;;;;;4.72;3.55;;;10.50;84.40;;;;;;5005557;28;20250;-82
2023/01/04 01:56:38;;;;;;;6.03;4.00;;;10.40;84.40;;;;;;5006312;28;20628;-84
2023/01/04 01:59:05;;;;;;;5.40;3.60;;;10.40;84.50;;;;;;5005879;28;20267;-83
2023/01/04 02:01:32;;;;;;;2.83;2.72;;;10.30;84.70;;;;;;5005855;28;20688;-83
2023/01/04 02:03:58;;;;;;;3.63;3.25;;;10.30;84.80;;;;;;5005795;28;20225;-84
2023/01/04 02:06:31;;;;;;;3.70;3.40;;;10.30;84.80;;;;;;5006641;28;20658;-84
2023/01/04 02:09:00;;;;;;;4.50;3.58;;;10.40;84.60;;;;;;5005206;28;20941;-83
2023/01/04 02:11:25;;;;;;;3.40;3.10;;;10.20;85.10;;;;;;5008524;28;20632;-84
2023/01/04 02:16:38;;;;;;;4.20;3.83;;;10.20;85.20;;;;;;5006549;28;20625;-84
2023/01/04 02:19:35;;;;;;;3.97;3.63;;;10.10;85.40;;;;;;5009913;28;20196;-84
2023/01/04 02:22:39;;;;;;;3.40;3.05;;;10.10;85.20;;;;;;4995780;28;20247;-84
2023/01/04 02:25:07;;;;;;;4.65;3.20;;;10.00;85.60;;;;;;4999387;28;20196;-84
2023/01/04 02:27:37;;;;;;;4.15;3.83;;;10.10;85.40;;;;;;5001940;28;20193;-83
2023/01/04 02:30:14;;;;;;;2.88;2.78;;;10.00;85.70;;;;;;5004598;28;20246;-82
2023/01/04 02:32:51;;;;;;;6.00;3.08;;;9.90;86.00;;;;;;5005774;28;20193;-82
2023/01/04 02:35:24;;;;;;;5.43;3.42;;;9.90;86.20;;;;;;5005046;28;20192;-82
2023/01/04 02:37:57;;;;;;;3.50;3.30;;;9.80;86.20;;;;;;5009456;28;20248;-82
2023/01/04 02:40:41;;;;;;;5.00;4.18;;;9.80;86.00;;;;;;5004790;28;20189;-82
2023/01/04 02:46:12;;;;;;;6.88;3.83;;;9.80;86.80;;;;;;5005200;28;20196;-82
2023/01/04 02:51:29;;;;;;;6.30;4.18;;;9.60;87.60;;;;;;5005016;28;20188;-82
2023/01/04 02:53:57;;;;;;;5.20;4.22;;;9.60;87.50;;;;;;5004920;28;20263;-82
2023/01/04 02:56:51;;;;;;;3.95;3.65;;;9.60;87.30;;;;;;5004795;28;20188;-82
2023/01/04 02:59:36;;;;;;;6.97;4.73;;;9.60;87.40;;;;;;5003883;28;20207;-82
2023/01/04 03:08:26;;;;;;;4.93;4.20;;;9.50;87.70;;;;;;5001990;28;20243;-82
2023/01/04 03:11:05;;;;;;;5.15;3.45;;;9.40;87.60;;;;;;5003108;28;20188;-82
2023/01/04 03:13:52;;;;;;;4.55;3.65;;;9.40;87.70;;;;;;5012164;28;20283;-82
2023/01/04 03:16:23;;;;;;;5.60;3.80;;;9.40;88.00;;;;;;5003166;28;20193;-82
2023/01/04 03:18:56;;;;;;;4.28;3.88;;;9.40;88.10;;;;;;5004961;28;21025;-80
2023/01/04 03:21:25;;;;;;;3.87;3.40;;;9.30;88.40;;;;;;5005004;28;20215;-81
2023/01/04 03:35:46;;;;;;;4.25;3.13;;;9.20;89.00;;;;;;5005172;28;20278;-80
2023/01/04 03:50:25;;;;;;;3.40;3.20;;;9.20;88.70;;;;;;5006331;28;20243;-80
2023/01/04 03:52:52;;;;;;;4.53;3.27;;;9.20;88.90;;;;;;5008464;28;20176;-82
2023/01/04 03:55:18;;;;;;;7.07;3.88;;;9.10;89.20;;;;;;5007847;28;20268;-81
2023/01/04 03:57:45;;;;;;;6.60;3.60;;;9.00;89.60;;;;;;5001818;28;20269;-80
2023/01/04 04:00:15;;;;;;;3.90;3.10;;;9.00;89.80;;;;;;5007427;28;20192;-83
2023/01/04 04:02:41;;;;;;;3.73;3.13;;;8.90;89.80;;;;;;5007598;28;20696;-82
2023/01/04 04:10:39;;;;;;;4.63;3.43;;;9.00;89.50;;;;;;5005359;28;20187;-81
2023/01/04 04:13:05;;;;;;;4.63;3.60;;;9.10;89.20;;;;;;5007113;28;20644;-81
2023/01/04 04:15:31;;;;;;;4.30;3.90;;;9.10;89.20;;;;;;5007919;28;20709;-83
2023/01/04 04:17:56;;;;;;;7.10;3.93;;;9.10;89.40;;;;;;5007206;28;20177;-81
2023/01/04 04:20:22;;;;;;;9.93;3.50;;;9.10;89.00;;;;;;5006488;28;20177;-81
2023/01/04 04:22:47;;;;;;;4.17;3.77;;;9.20;88.60;;;;;;5008259;28;20220;-81
2023/01/04 04:25:13;;;;;;;3.22;2.97;;;9.20;88.80;;;;;;5008168;28;20658;-81
2023/01/04 04:27:39;;;;;;;7.07;4.07;;;9.10;89.10;;;;;;5007865;28;20192;-81
2023/01/04 04:30:05;;;;;;;5.20;3.90;;;9.00;89.50;;;;;;5008167;28;20172;-81
2023/01/04 04:32:31;;;;;;;8.47;3.50;;;9.00;89.40;;;;;;5008219;28;20181;-80
2023/01/04 04:34:56;;;;;;;9.33;3.70;;;9.10;89.20;;;;;;5007511;28;20196;-79
2023/01/04 04:37:22;;;;;;;6.80;3.43;;;9.10;89.30;;;;;;5007035;28;20187;-80
2023/01/04 04:39:48;;;;;;;3.43;3.23;;;9.10;89.20;;;;;;5008183;28;20184;-82
2023/01/04 04:42:13;;;;;;;4.23;3.20;;;9.10;88.90;;;;;;5009578;28;20193;-79
2023/01/04 04:44:39;;;;;;;2.90;2.70;;;9.00;88.90;;;;;;5006892;28;20296;-82
2023/01/04 04:47:04;;;;;;;3.37;3.10;;;9.00;88.90;;;;;;5007716;28;20268;-81
2023/01/04 04:49:31;;;;;;;5.03;4.07;;;9.00;89.10;;;;;;5008121;28;20212;-81
2023/01/04 04:51:57;;;;;;;3.23;3.10;;;8.90;89.50;;;;;;5007475;28;20181;-81
2023/01/04 04:54:22;;;;;;;4.60;4.20;;;8.90;89.50;;;;;;5003567;28;20188;-81
2023/01/04 04:56:49;;;;;;;4.60;4.10;;;8.90;89.50;;;;;;5005302;28;20173;-81
2023/01/04 04:59:15;;;;;;;6.60;4.10;;;9.00;89.30;;;;;;5004859;28;20185;-81
2023/01/04 05:01:40;;;;;;;4.23;3.77;;;9.00;89.30;;;;;;5005155;28;20199;-80
2023/01/04 05:04:06;;;;;;;3.97;3.47;;;8.90;89.80;;;;;;5002609;28;20213;-81
2023/01/04 05:06:33;;;;;;;4.73;3.53;;;8.80;90.10;;;;;;5006249;28;20677;-82
2023/01/04 05:08:58;;;;;;;3.57;3.27;;;8.80;90.00;;;;;;4998558;28;20265;-82
2023/01/04 05:14:09;;;;;;;3.97;3.67;;;8.80;90.30;;;;;;5006703;28;20577;-82
2023/01/04 05:16:35;;;;;;;3.87;3.57;;;8.80;90.40;;;;;;4989585;28;20189;-82
2023/01/04 05:19:01;;;;;;;4.67;3.70;;;8.90;89.90;;;;;;5007423;28;20185;-83
2023/01/04 05:21:27;;;;;;;4.40;3.93;;;8.90;90.00;;;;;;5008955;28;20650;-83
2023/01/04 05:23:52;;;;;;;3.53;3.33;;;8.90;89.50;;;;;;4986594;28;20200;-84
2023/01/04 05:26:18;;;;;;;9.97;4.40;;;8.90;89.70;;;;;;5019415;28;20212;-83
2023/01/04 05:28:43;;;;;;;4.53;4.13;;;8.90;89.80;;;;;;4997150;28;20254;-83
2023/01/04 05:31:09;;;;;;;5.07;3.40;;;8.90;89.70;;;;;;5007980;28;20181;-83
2023/01/04 05:33:35;;;;;;;4.23;3.87;;;8.80;90.20;;;;;;5009028;28;20243;-83
2023/01/04 05:36:02;;;;;;;6.40;4.10;;;8.70;90.40;;;;;;4990808;28;20216;-83
2023/01/04 05:38:29;;;;;;;5.70;4.17;;;8.80;90.20;;;;;;5013868;28;20565;-84
2023/01/04 05:40:55;;;;;;;6.47;4.03;;;8.80;89.80;;;;;;4998853;28;20217;-83
2023/01/04 05:43:22;;;;;;;4.17;3.67;;;8.80;89.80;;;;;;4998906;28;20637;-77
2023/01/04 05:45:50;;;;;;;6.77;4.23;;;8.80;89.90;;;;;;5005137;28;20181;-78
2023/01/04 05:48:17;;;;;;;5.20;3.83;;;8.80;89.50;;;;;;4988083;28;20195;-77
2023/01/04 05:50:44;;;;;;;4.07;3.73;;;8.90;89.40;;;;;;5005884;28;20212;-76
2023/01/04 05:53:11;;;;;;;8.00;4.60;;;8.90;89.20;;;;;;4987165;28;20251;-78
2023/01/04 05:55:36;;;;;;;4.60;4.20;;;8.80;89.60;;;;;;5006427;28;20268;-77
2023/01/04 05:58:02;;;;;;;6.17;3.80;;;8.90;89.20;;;;;;5006207;28;20272;-74
2023/01/04 06:00:28;;;;;;;4.63;3.53;;;8.80;89.30;;;;;;5005969;28;20212;-75
2023/01/04 06:02:55;;;;;;;4.07;3.77;;;8.90;89.10;;;;;;5006003;28;20203;-75
2023/01/04 06:05:24;;;;;;;3.40;3.10;;;8.90;88.90;;;;;;5003088;28;20268;-75
2023/01/04 06:07:50;;;;;;;4.20;3.40;;;8.90;88.90;;;;;;4993675;28;20174;-73
2023/01/04 06:10:17;;;;;;;4.97;4.27;;;8.90;89.20;;;;;;5005059;28;20231;-73
2023/01/04 06:12:43;;;;;;;5.07;3.50;;;9.00;88.90;;;;;;4987132;28;20318;-73
2023/01/04 06:15:10;;;;;;;4.07;3.70;;;8.90;88.90;;;;;;4998704;28;21006;-73
2023/01/04 06:17:36;;;;;;;4.43;4.03;;;8.90;88.90;;;;;;5005396;28;20187;-73
2023/01/04 06:20:04;;;;;;;4.13;3.73;;;8.90;88.90;;;;;;4994897;28;20255;-73
2023/01/04 06:22:31;;;;;;;7.73;3.63;;;9.00;88.50;;;;;;5004791;28;20184;-73
2023/01/04 06:24:57;;;;;;;4.00;3.67;;;9.00;88.60;;;;;;4987996;28;20263;-75
2023/01/04 06:27:23;;;;;;;3.40;3.10;;;9.00;88.50;;;;;;5004180;28;20208;-75
2023/01/04 06:29:48;;;;;;;5.50;4.00;;;9.00;88.30;;;;;;5003327;28;20253;-79
2023/01/04 06:32:14;;;;;;;4.73;3.20;;;9.00;88.30;;;;;;5006036;28;20264;-80
2023/01/04 06:34:40;;;;;;;4.10;3.57;;;8.90;88.60;;;;;;5004903;28;20259;-81
2023/01/04 06:37:05;;;;;;;8.30;4.00;;;8.90;88.90;;;;;;5003517;28;20185;-80
2023/01/04 06:39:31;;;;;;;6.80;3.50;;;8.90;88.90;;;;;;5004624;28;20175;-80
2023/01/04 06:41:57;;;;;;;5.23;3.80;;;8.90;88.90;;;;;;4985886;28;20176;-80
2023/01/04 06:44:22;;;;;;;5.00;3.13;;;9.00;88.40;;;;;;5004425;28;20208;-80
2023/01/04 06:46:48;;;;;;;4.10;3.70;;;9.10;88.10;;;;;;5008017;28;20263;-81
2023/01/04 06:49:14;;;;;;;3.10;2.90;;;9.00;88.20;;;;;;4993086;28;20238;-81
2023/01/04 06:51:40;;;;;;;3.83;3.30;;;9.00;88.20;;;;;;5004970;28;20275;-81
2023/01/04 06:54:05;;;;;;;5.90;3.57;;;9.10;88.10;;;;;;5004405;28;20189;-81
2023/01/04 06:56:32;;;;;;;5.13;3.47;;;9.00;88.20;;;;;;5004304;28;20255;-81
2023/01/04 06:58:58;;;;;;;9.00;4.10;;;9.00;88.30;;;;;;5016193;28;20648;-81
2023/01/04 07:01:24;;;;;;;3.83;3.53;;;8.90;88.50;;;;;;5004813;28;20284;-81
2023/01/04 07:03:49;;;;;;;5.37;3.07;;;8.90;88.40;;;;;;5004557;28;20211;-81
2023/01/04 07:06:15;;;;;;;4.73;3.70;;;8.90;88.30;;;;;;5009732;28;20223;-81
2023/01/04 07:08:41;;;;;;;7.90;3.33;;;9.00;88.10;;;;;;5014641;28;20235;-81
2023/01/04 07:11:06;;;;;;;4.57;2.95;;;8.90;88.10;;;;;;5007164;28;20291;-81
2023/01/04 07:13:32;;;;;;;3.80;3.03;;;8.90;88.20;;;;;;5005061;28;20268;-81
2023/01/04 07:15:58;;;;;;;6.23;3.20;;;9.00;88.00;;;;;;4986914;28;20209;-81
2023/01/04 07:18:23;;;;;;;5.73;3.80;;;9.10;87.90;;;;;;5015234;28;20251;-81
2023/01/04 07:20:49;;;;;;;4.10;3.07;;;9.10;87.80;;;;;;5010237;28;20270;-81
2023/01/04 07:23:15;;;;;;;6.33;3.73;;;9.10;87.80;;;;;;5017508;28;20212;-81
2023/01/04 07:25:40;;;;;;;4.53;3.80;;;9.10;87.50;;;;;;5006283;28;20189;-81
2023/01/04 07:28:07;;;;;;;3.77;3.47;;;9.20;87.60;;;;;;5018041;28;20200;-79
2023/01/04 07:30:32;;;;;;;4.20;3.40;;;9.20;87.50;;;;;;5008841;28;20173;-81
2023/01/04 07:32:58;;;;;;;3.60;3.37;;;9.20;87.50;;;;;;5012258;28;20204;-75
2023/01/04 07:35:24;;;;;;;5.07;3.40;;;9.20;87.30;;;;;;5005566;28;20189;-73
2023/01/04 07:37:50;;;;;;;3.97;3.60;;;9.20;87.30;;;;;;5006966;28;20185;-75
2023/01/04 07:40:15;;;;;;;3.20;2.93;;;9.30;87.20;;;;;;5003510;28;20252;-72
2023/01/04 07:42:41;;;;;;;3.63;3.33;;;9.40;86.90;;;;;;5013463;28;20196;-74
2023/01/04 07:45:07;;;;;;;5.97;3.30;;;9.50;86.70;;;;;;5007238;28;20212;-73
2023/01/04 07:47:33;;;;;;;5.50;3.30;;;9.50;86.40;;;;;;5007295;28;20315;-73
2023/01/04 07:49:59;;;;;;;4.03;3.37;;;9.60;86.30;;;;;;4997475;28;20182;-73
2023/01/04 07:52:25;;;;;;;5.57;4.23;;;9.70;86.00;;;;;;5011510;28;20756;-73
2023/01/04 07:54:50;;;;;;;3.57;3.30;;;9.60;86.00;;;;;;5015875;28;20181;-73
2023/01/04 07:57:16;;;;;;;5.57;3.73;;;9.60;86.00;;;;;;5006591;28;20933;-73
2023/01/04 07:59:42;;;;;;;3.43;3.23;;;9.50;86.00;;;;;;5007237;28;20643;-73
2023/01/04 08:02:11;;;;;;;6.60;3.27;;;9.50;86.20;;;;;;5001770;28;20288;-72
2023/01/04 08:04:37;;;;;;;4.50;3.83;;;9.50;86.40;;;;;;4987865;28;20293;-73
2023/01/04 08:07:03;;;;;;;4.67;3.90;;;9.50;86.20;;;;;;4999807;28;20248;-73
2023/01/04 08:09:29;;;;;;;3.33;3.10;;;9.50;86.20;;;;;;4987279;28;20267;-73
2023/01/04 08:11:54;;;;;;;9.13;3.67;;;9.60;86.20;;;;;;5001441;28;20188;-74
2023/01/04 08:14:20;;;;;;;4.03;3.67;;;9.60;86.10;;;;;;5008045;28;20591;-74
2023/01/04 08:16:46;;;;;;;5.53;3.88;;;9.70;86.00;;;;;;5002210;28;20188;-74
2023/01/04 08:19:19;;;;;;;7.83;3.50;;;9.70;85.80;;;;;;5001609;28;20185;-74
2023/01/04 08:21:45;;;;;;;2.67;2.40;;;9.60;85.60;;;;;;5008344;28;20181;-74
2023/01/04 08:24:16;;;;;;;4.37;3.60;;;9.50;85.80;;;;;;5007802;28;20613;-74
2023/01/04 08:26:42;;;;;;;4.27;3.60;;;9.60;85.80;;;;;;5007466;28;20976;-74
2023/01/04 08:29:08;;;;;;;8.73;3.83;;;9.60;85.60;;;;;;5000447;28;20188;-74
2023/01/04 08:31:34;;;;;;;7.23;4.23;;;9.50;85.70;;;;;;4999694;28;20288;-73
2023/01/04 08:34:03;;;;;;;4.40;3.83;;;9.50;85.70;;;;;;5000644;28;20259;-73
2023/01/04 08:36:31;;;;;;;7.30;4.43;;;9.50;85.80;;;;;;4994897;28;20196;-74
2023/01/04 08:38:59;;;;;;;5.20;4.20;;;9.60;85.90;;;;;;5007360;28;20180;-73
2023/01/04 08:41:25;;;;;;;3.67;3.33;;;9.50;85.90;;;;;;5007617;28;20338;-74
2023/01/04 08:43:50;;;;;;;4.43;3.90;;;9.60;85.60;;;;;;5007545;28;20299;-74
2023/01/04 08:46:16;;;;;;;6.93;4.23;;;9.70;85.80;;;;;;5007717;28;20224;-74
2023/01/04 08:48:42;;;;;;;4.60;3.70;;;9.70;85.60;;;;;;5010201;28;20185;-74
2023/01/04 08:51:11;;;;;;;6.70;3.90;;;9.70;85.40;;;;;;5006668;28;20300;-76
2023/01/04 08:53:37;;;;;;;4.18;3.60;;;9.70;85.30;;;;;;4993726;28;20186;-76
2023/01/04 08:56:03;;;;;;;6.32;4.03;;;9.80;85.10;;;;;;5007768;28;20177;-75
2023/01/04 08:58:31;;;;;;;4.05;3.55;;;9.80;84.80;;;;;;4997421;28;20178;-76
2023/01/04 09:01:01;;;;;;;5.90;4.03;;;9.70;85.00;;;;;;5007542;28;20192;-75
2023/01/04 09:03:27;;;;;;;5.72;3.88;;;9.50;85.50;;;;;;5005028;28;20193;-76
2023/01/04 09:05:52;;;;;;;4.13;3.73;;;9.60;85.10;;;;;;4988654;28;20616;-73
2023/01/04 09:08:18;;;;;;;4.83;4.37;;;9.70;85.10;;;;;;4991184;28;20178;-74
2023/01/04 09:10:44;;;;;;;4.63;4.10;;;9.60;85.10;;;;;;5006642;28;20211;-74
2023/01/04 09:13:09;;;;;;;4.65;4.25;;;9.70;85.00;;;;;;5006782;28;20181;-73
2023/01/04 09:15:35;;;;;;;4.68;3.88;;;9.80;84.80;;;;;;5006030;28;20203;-73
2023/01/04 09:18:02;;;;;;;5.50;4.50;;;9.90;84.60;;;;;;5005636;28;20752;-74
2023/01/04 09:20:28;;;;;;;7.80;4.60;;;9.90;84.40;;;;;;5006549;28;20192;-75
2023/01/04 09:22:56;;;;;;;4.78;4.15;;;9.80;84.30;;;;;;4993235;28;20255;-75
2023/01/04 09:25:22;;;;;;;6.37;4.60;;;9.90;84.20;;;;;;5005585;28;20181;-74
2023/01/04 09:27:47;;;;;;;4.20;3.77;;;9.90;84.00;;;;;;5006056;28;20551;-75
2023/01/04 09:30:13;;;;;;;4.47;4.00;;;9.80;84.00;;;;;;5004953;28;20191;-74
2023/01/04 09:32:39;;;;;;;4.57;4.13;;;9.70;84.10;;;;;;5006039;28;20212;-75
2023/01/04 09:35:05;;;;;;;6.55;4.65;;;9.70;84.00;;;;;;5004985;28;20204;-75
2023/01/04 09:37:30;;;;;;;4.93;4.43;;;9.60;84.00;;;;;;4994148;28;21067;-76
2023/01/04 09:39:56;;;;;;;4.78;3.30;;;9.60;83.90;;;;;;5002593;28;20181;-75
2023/01/04 09:42:30;;;;;;;4.35;3.95;;;9.50;83.70;;;;;;5003819;28;20185;-76
2023/01/04 09:45:02;;;;;;;4.13;3.47;;;9.40;84.00;;;;;;5006731;28;20200;-75
2023/01/04 09:47:37;;;;;;;8.55;4.57;;;9.30;84.40;;;;;;5015729;28;20633;-75
2023/01/04 09:50:12;;;;;;;3.60;3.30;;;9.40;84.40;;;;;;4995492;28;20989;-75
2023/01/04 09:52:42;;;;;;;6.90;3.63;;;9.40;84.40;;;;;;5001550;28;20246;-72
2023/01/04 09:55:25;;;;;;;5.03;3.67;;;9.30;84.60;;;;;;5010560;28;20185;-73
2023/01/04 09:57:55;;;;;;;8.33;3.77;;;9.40;84.50;;;;;;5005717;28;20208;-75
2023/01/04 10:00:21;;;;;;;7.40;4.57;;;9.40;84.70;;;;;;5007116;28;20275;-77
2023/01/04 10:02:51;;;;;;;4.60;4.10;;;9.40;84.60;;;;;;5005930;28;20279;-76
2023/01/04 10:05:25;;;;;;;5.43;3.70;;;9.50;84.60;;;;;;5006055;28;20189;-76
2023/01/04 10:07:50;;;;;;;6.57;3.97;;;9.60;84.40;;;;;;5006332;28;20204;-77
2023/01/04 10:10:30;;;;;;;4.88;4.15;;;9.50;84.40;;;;;;4991792;28;20208;-76
2023/01/04 10:13:04;;;;;;;3.97;3.57;;;9.50;84.40;;;;;;5006066;28;20169;-76
2023/01/04 10:15:38;;;;;;;4.87;3.70;;;9.40;84.40;;;;;;5005803;28;20185;-75
2023/01/04 10:18:18;;;;;;;6.73;4.20;;;9.50;84.40;;;;;;5005078;28;20181;-77
2023/01/04 10:21:02;;;;;;;4.63;3.03;;;9.40;84.50;;;;;;5005434;28;20250;-76
2023/01/04 10:23:57;;;;;;;2.93;2.63;;;9.40;84.40;;;;;;4994841;28;20213;-75
2023/01/04 10:26:25;;;;;;;7.40;4.17;;;9.40;84.80;;;;;;4964289;28;20198;-77
2023/01/04 10:29:11;;;;;;;4.18;3.78;;;9.40;84.70;;;;;;4964835;28;20273;-80
2023/01/04 10:31:59;;;;;;;4.40;3.60;;;9.50;84.60;;;;;;4953724;28;20207;-76
2023/01/04 10:34:28;;;;;;;5.35;4.18;;;9.60;84.30;;;;;;4947558;28;20613;-78
2023/01/04 10:37:09;;;;;;;9.77;3.90;;;9.60;84.50;;;;;;4963830;28;20198;-79
2023/01/04 10:39:35;;;;;;;3.73;3.43;;;9.60;84.20;;;;;;4948517;28;20209;-77
2023/01/04 10:42:37;;;;;;;7.03;3.47;;;9.70;84.20;;;;;;4963704;28;20680;-77
2023/01/04 10:45:10;;;;;;;6.53;3.73;;;9.70;84.20;;;;;;4961997;28;20781;-79
2023/01/04 10:47:54;;;;;;;5.27;4.03;;;9.80;84.10;;;;;;4958666;28;20192;-80
2023/01/04 10:50:25;;;;;;;3.60;3.30;;;9.80;83.90;;;;;;4967695;28;20222;-77
2023/01/04 10:53:11;;;;;;;5.53;4.13;;;9.60;84.30;;;;;;4966270;28;20206;-78
2023/01/04 10:56:03;;;;;;;3.87;3.57;;;9.70;84.10;;;;;;4948068;28;20187;-74
2023/01/04 10:58:38;;;;;;;3.70;3.40;;;9.50;84.80;;;;;;4888856;29;20251;-77
2023/01/04 11:01:14;;;;;;;4.57;4.00;;;9.60;84.60;;;;;;4886756;29;20330;-78
2023/01/04 11:03:45;;;;;;;4.57;4.17;;;9.60;84.50;;;;;;4901639;29;20211;-77
2023/01/04 11:06:16;;;;;;;5.67;4.27;;;9.60;84.70;;;;;;4906238;29;20199;-76
2023/01/04 11:09:01;;;;;;;4.60;4.03;;;9.50;85.00;;;;;;4889480;29;20211;-75
2023/01/04 11:11:31;;;;;;;5.03;4.00;;;9.50;84.80;;;;;;4905965;29;20188;-78
2023/01/04 11:13:58;;;;;;;4.97;3.30;;;9.50;85.00;;;;;;4904682;29;20189;-78
2023/01/04 11:16:25;;;;;;;3.67;3.37;;;9.40;85.10;;;;;;4887903;29;20199;-79
2023/01/04 11:18:51;;;;;;;5.73;4.20;;;9.40;85.40;;;;;;4903396;29;20709;-80
2023/01/04 11:21:24;;;;;;;5.60;4.40;;;9.40;85.20;;;;;;4905596;29;20231;-84
2023/01/04 11:23:50;;;;;;;4.47;3.78;;;9.50;85.00;;;;;;4888361;29;20345;-85
2023/01/04 11:26:23;;;;;;;4.68;4.18;;;9.60;85.00;;;;;;4886383;29;20527;-89
2023/01/04 11:28:53;;;;;;;4.37;3.43;;;9.60;84.60;;;;;;4903241;29;20208;-86
2023/01/04 11:31:29;;;;;;;4.97;3.73;;;9.80;84.80;;;;;;4892904;29;20256;-87
2023/01/04 11:33:58;;;;;;;3.67;3.37;;;9.80;84.20;;;;;;4900566;29;20252;-83
2023/01/04 11:36:45;;;;;;;4.10;3.70;;;9.90;84.30;;;;;;5013388;28;20201;-81
2023/01/04 11:39:25;;;;;;;3.50;3.22;;;10.00;83.90;;;;;;5011471;28;20220;-79
2023/01/04 11:41:55;;;;;;;3.95;3.30;;;10.10;83.70;;;;;;5003059;28;20246;-79
2023/01/04 11:44:22;;;;;;;4.15;3.28;;;10.10;83.70;;;;;;5010802;28;20813;-80
2023/01/04 11:47:13;;;;;;;5.33;3.67;;;10.30;83.40;;;;;;5011413;28;20275;-79
2023/01/04 11:49:38;;;;;;;3.92;3.58;;;10.30;83.00;;;;;;5005568;28;20193;-79
2023/01/04 11:52:05;;;;;;;3.90;3.30;;;10.40;82.60;;;;;;4992384;28;20280;-80
2023/01/04 11:54:30;;;;;;;4.05;3.40;;;10.40;82.40;;;;;;5011008;28;20188;-77
2023/01/04 11:57:09;;;;;;;4.28;3.85;;;10.50;82.10;;;;;;5011978;28;20183;-78
2023/01/04 11:59:35;;;;;;;3.70;3.40;;;10.60;81.90;;;;;;4998362;28;20197;-82
2023/01/04 12:02:20;;;;;;;4.82;3.50;;;10.70;81.80;;;;;;5013535;28;20197;-81
2023/01/04 12:04:45;;;;;;;7.25;3.92;;;10.70;81.50;;;;;;5008923;28;20296;-78
2023/01/04 12:07:26;;;;;;;3.72;3.42;;;10.80;81.70;;;;;;5009482;28;20632;-83
2023/01/04 12:09:52;;;;;;;6.20;4.30;;;10.80;81.50;;;;;;5016520;28;20185;-82
2023/01/04 12:12:18;;;;;;;4.20;3.65;;;11.00;81.60;;;;;;5025353;28;20192;-85
2023/01/04 12:14:48;;;;;;;4.72;3.72;;;11.30;81.40;;;;;;5023345;28;20191;-81
2023/01/04 12:17:32;;;;;;;3.83;3.53;;;11.60;80.00;;;;;;5002805;28;20181;-78
2023/01/04 12:20:03;;;;;;;4.35;3.60;;;12.00;79.40;;;;;;5015079;28;20192;-80
2023/01/04 12:22:39;;;;;;;4.28;4.00;;;12.40;78.10;;;;;;4996861;28;20260;-82
2023/01/04 12:25:27;;;;;;;3.88;3.58;;;12.70;77.30;;;;;;5010148;28;20291;-86
2023/01/04 12:27:56;;;;;;;7.68;4.07;;;12.90;77.10;;;;;;4990963;28;20220;-82
2023/01/04 12:30:45;;;;;;;4.40;4.00;;;13.00;75.70;;;;;;4993946;28;20682;-78
2023/01/04 12:33:28;;;;;;;4.28;3.65;;;13.00;75.90;;;;;;5010863;28;20173;-81
2023/01/04 12:36:02;;;;;;;6.45;4.63;;;13.00;75.50;;;;;;5021043;28;20670;-80
2023/01/04 12:38:53;;;;;;;3.88;3.58;;;12.90;75.40;;;;;;5024049;28;20258;-80
2023/01/04 12:41:23;;;;;;;4.38;3.63;;;12.60;75.80;;;;;;5021109;28;20181;-80
2023/01/04 12:43:49;;;;;;;6.68;3.85;;;12.50;76.30;;;;;;5018299;28;20201;-80
2023/01/04 12:49:27;;;;;;;5.82;3.70;;;12.10;76.70;;;;;;5014420;28;20283;-81
2023/01/04 12:52:08;;;;;;;3.50;3.20;;;11.90;77.40;;;;;;5022951;28;20204;-83
2023/01/04 12:54:53;;;;;;;5.25;3.30;;;11.80;77.50;;;;;;5017750;28;20220;-82
2023/01/04 12:57:23;;;;;;;3.17;2.85;;;11.60;77.90;;;;;;5016538;28;20177;-82
2023/01/04 13:00:22;;;;;;;4.43;3.25;;;11.40;78.40;;;;;;5008184;28;20204;-83
2023/01/04 13:03:13;;;;;;;3.17;2.97;;;11.40;78.50;;;;;;4914481;29;20216;-82
2023/01/04 13:05:40;;;;;;;4.28;3.67;;;11.20;78.90;;;;;;4932766;29;20207;-82
2023/01/04 13:08:11;;;;;;;4.82;3.20;;;11.10;79.30;;;;;;4927765;29;20614;-78
2023/01/04 13:10:46;;;;;;;3.50;3.20;;;11.10;79.30;;;;;;4903482;29;20189;-80
2023/01/04 13:13:49;;;;;;;4.00;3.67;;;11.00;79.40;;;;;;4926560;29;20203;-78
2023/01/04 13:16:49;;;;;;;7.25;4.50;;;10.90;79.90;;;;;;4931254;29;20775;-78
2023/01/04 13:19:21;;;;;;;4.97;4.00;;;10.90;80.20;;;;;;4910267;29;20203;-80
2023/01/04 13:21:48;;;;;;;5.97;4.40;;;10.80;80.50;;;;;;4901104;29;21086;-78
2023/01/04 13:24:22;;;;;;;5.57;4.85;;;10.70;80.90;;;;;;4928703;29;20219;-77
2023/01/04 13:26:49;;;;;;;7.13;4.63;;;10.70;80.80;;;;;;4929101;29;20189;-77
2023/01/04 13:29:28;;;;;;;4.93;4.13;;;10.80;80.60;;;;;;4910662;29;20789;-77
2023/01/04 13:32:12;;;;;;;6.13;4.68;;;10.80;80.70;;;;;;4921058;29;20235;-77
2023/01/04 13:35:02;;;;;;;5.30;4.80;;;10.80;80.50;;;;;;4925116;29;20184;-77
2023/01/04 13:37:34;;;;;;;4.85;4.38;;;10.80;80.50;;;;;;4938785;28;20247;-77
2023/01/04 13:40:17;;;;;;;6.10;4.28;;;10.80;80.70;;;;;;5010435;28;20181;-77
2023/01/04 13:42:50;;;;;;;6.32;4.10;;;10.80;80.80;;;;;;5009309;28;20196;-78
2023/01/04 13:45:37;;;;;;;3.72;3.40;;;10.70;80.40;;;;;;5008000;28;20294;-77
2023/01/04 13:48:09;;;;;;;4.35;3.92;;;10.80;80.50;;;;;;5006663;28;20177;-77
2023/01/04 13:50:45;;;;;;;5.53;4.63;;;10.70;80.70;;;;;;5005124;28;20246;-77
2023/01/04 13:53:21;;;;;;;5.97;4.75;;;10.70;80.70;;;;;;5005546;28;20188;-77
2023/01/04 13:55:52;;;;;;;6.20;4.78;;;10.80;80.50;;;;;;5005224;28;20208;-77
2023/01/04 13:58:21;;;;;;;4.90;4.18;;;10.70;80.80;;;;;;5006339;28;20169;-77